Time;durP1;ratioP1;P1;durP2;ratioP2;P2;SDS_P1;SDS_P2;PMS_P1;PMS_P2;Temp;Humidity;BMP_temperature;BMP_pressure;BME280_temperature;BME280_humidity;BME280_pressure;Samples;Min_cycle;Max_cycle;Signal;HPM_P1;HPM_P2
2023/02/07 00:02:16;;;;;;;25.00;7.93;;;2.00;99.90;;;;;;5056951;28;20060;-53
2023/02/07 00:04:43;;;;;;;28.95;7.88;;;2.10;99.90;;;;;;5055207;28;20064;-51
2023/02/07 00:07:10;;;;;;;23.05;7.28;;;2.00;99.90;;;;;;5056393;28;20515;-51
2023/02/07 00:09:36;;;;;;;23.40;8.05;;;2.00;99.90;;;;;;5056537;28;20162;-49
2023/02/07 00:12:05;;;;;;;20.80;7.32;;;2.00;99.90;;;;;;5056443;28;20095;-48
2023/02/07 00:14:33;;;;;;;27.05;7.55;;;1.90;99.90;;;;;;5056431;28;20476;-49
2023/02/07 00:17:00;;;;;;;20.83;7.35;;;1.90;99.90;;;;;;5056826;28;20114;-50
2023/02/07 00:19:26;;;;;;;18.80;6.80;;;1.90;99.90;;;;;;5056365;28;20041;-49
2023/02/07 00:21:53;;;;;;;21.90;7.70;;;1.90;99.90;;;;;;5055959;28;20053;-52
2023/02/07 00:24:20;;;;;;;24.58;7.47;;;1.80;99.90;;;;;;5056219;28;20045;-53
2023/02/07 00:26:47;;;;;;;22.58;7.60;;;1.80;99.90;;;;;;5055998;28;20037;-49
2023/02/07 00:29:14;;;;;;;26.33;7.57;;;1.80;99.90;;;;;;5054963;28;20045;-51
2023/02/07 00:31:41;;;;;;;18.50;6.78;;;1.80;99.90;;;;;;5056340;28;20044;-50
2023/02/07 00:34:08;;;;;;;21.27;8.10;;;1.80;99.90;;;;;;5054540;28;20055;-48
2023/02/07 00:36:34;;;;;;;18.48;7.13;;;1.80;99.90;;;;;;5056153;28;20460;-47
2023/02/07 00:39:01;;;;;;;19.83;6.63;;;1.80;99.90;;;;;;5056168;28;20111;-47
2023/02/07 00:41:28;;;;;;;19.17;6.72;;;1.80;99.90;;;;;;5055558;28;20037;-53
2023/02/07 00:43:55;;;;;;;20.23;7.00;;;1.70;99.90;;;;;;5055777;28;20049;-49
2023/02/07 00:46:22;;;;;;;22.83;7.38;;;1.70;99.90;;;;;;5055821;28;20064;-48
2023/02/07 00:48:49;;;;;;;18.58;7.47;;;1.70;99.90;;;;;;5054389;28;20132;-51
2023/02/07 00:51:16;;;;;;;24.05;7.45;;;1.60;99.90;;;;;;5054611;28;20045;-48
2023/02/07 00:53:44;;;;;;;24.48;7.32;;;1.60;99.90;;;;;;5055839;28;20037;-52
2023/02/07 00:56:10;;;;;;;23.05;8.25;;;1.60;99.90;;;;;;5055711;28;20033;-51
2023/02/07 00:58:37;;;;;;;20.00;7.70;;;1.60;99.90;;;;;;5054576;28;20425;-48
2023/02/07 01:01:05;;;;;;;21.77;7.65;;;1.50;99.90;;;;;;5054219;28;20052;-54
2023/02/07 01:03:32;;;;;;;19.90;7.80;;;1.50;99.90;;;;;;5054355;28;20052;-53
2023/02/07 01:05:59;;;;;;;20.23;7.85;;;1.50;99.90;;;;;;5054245;28;20495;-52
2023/02/07 01:08:28;;;;;;;25.58;7.40;;;1.50;99.90;;;;;;5055077;28;20360;-51
2023/02/07 01:10:56;;;;;;;18.17;6.55;;;1.40;99.90;;;;;;5055582;28;20043;-57
2023/02/07 01:13:22;;;;;;;21.10;6.85;;;1.40;99.90;;;;;;5053660;28;20083;-54
2023/02/07 01:15:49;;;;;;;19.08;6.75;;;1.40;99.90;;;;;;5057737;28;20033;-52
2023/02/07 01:18:16;;;;;;;23.35;7.75;;;1.40;99.90;;;;;;5054921;28;20051;-53
2023/02/07 01:20:43;;;;;;;21.23;7.07;;;1.40;99.90;;;;;;5053776;28;20091;-49
2023/02/07 01:23:10;;;;;;;18.88;6.85;;;1.30;99.90;;;;;;5055294;28;20460;-51
2023/02/07 01:25:36;;;;;;;16.38;7.60;;;1.40;99.90;;;;;;5054202;28;20063;-48
2023/02/07 01:28:03;;;;;;;19.83;7.35;;;1.30;99.90;;;;;;5055169;28;20080;-52
2023/02/07 01:30:30;;;;;;;20.80;7.47;;;1.30;99.90;;;;;;5055232;28;20131;-54
2023/02/07 01:32:57;;;;;;;18.25;7.03;;;1.30;99.90;;;;;;5054931;28;20040;-50
2023/02/07 01:35:24;;;;;;;23.38;7.72;;;1.30;99.90;;;;;;5053961;28;20487;-50
2023/02/07 01:37:52;;;;;;;22.77;7.88;;;1.20;99.90;;;;;;5053638;28;20071;-52
2023/02/07 01:40:19;;;;;;;22.83;8.30;;;1.20;99.90;;;;;;5055093;28;20480;-50
2023/02/07 01:42:45;;;;;;;22.05;7.90;;;1.20;99.90;;;;;;5055108;28;20071;-52
2023/02/07 01:45:12;;;;;;;23.80;7.90;;;1.20;99.90;;;;;;5054806;28;20094;-52
2023/02/07 01:47:39;;;;;;;26.20;7.70;;;1.10;99.90;;;;;;5054568;28;20107;-51
2023/02/07 01:50:06;;;;;;;23.70;7.57;;;1.10;99.90;;;;;;5054489;28;20387;-53
2023/02/07 01:52:33;;;;;;;21.33;8.02;;;1.00;99.90;;;;;;5052473;28;20171;-50
2023/02/07 01:54:59;;;;;;;25.33;8.10;;;1.00;99.90;;;;;;5054617;28;20459;-49
2023/02/07 01:57:26;;;;;;;24.38;8.55;;;1.00;99.90;;;;;;5054457;28;20037;-53
2023/02/07 01:59:53;;;;;;;18.33;8.52;;;1.00;99.90;;;;;;5053156;28;20423;-53
2023/02/07 02:02:20;;;;;;;21.85;10.00;;;1.00;99.90;;;;;;5054348;28;20095;-49
2023/02/07 02:04:48;;;;;;;28.30;9.20;;;1.00;99.90;;;;;;5052687;28;20143;-51
2023/02/07 02:07:14;;;;;;;21.75;10.27;;;1.00;99.90;;;;;;5053047;28;20561;-49
2023/02/07 02:09:42;;;;;;;22.23;10.07;;;0.90;99.90;;;;;;5054487;28;20044;-53
2023/02/07 02:12:09;;;;;;;26.75;11.50;;;0.90;99.90;;;;;;5052947;28;20447;-49
2023/02/07 02:14:36;;;;;;;30.67;11.52;;;0.90;99.90;;;;;;5054433;28;20044;-50
2023/02/07 02:17:02;;;;;;;27.27;11.93;;;0.90;99.90;;;;;;5053017;28;20071;-52
2023/02/07 02:19:29;;;;;;;27.48;11.57;;;0.90;99.90;;;;;;5052557;28;20083;-52
2023/02/07 02:21:56;;;;;;;31.00;12.38;;;0.90;99.90;;;;;;5053863;28;20546;-52
2023/02/07 02:24:23;;;;;;;28.83;12.43;;;0.80;99.90;;;;;;5053092;28;20087;-49
2023/02/07 02:26:49;;;;;;;28.10;11.93;;;0.80;99.90;;;;;;5054096;28;20174;-53
2023/02/07 02:29:16;;;;;;;22.08;11.25;;;0.80;99.90;;;;;;5053683;28;20122;-53
2023/02/07 02:31:43;;;;;;;20.88;9.40;;;0.80;99.90;;;;;;5052549;28;20098;-53
2023/02/07 02:34:10;;;;;;;26.55;10.10;;;0.80;99.90;;;;;;5052758;28;20036;-50
2023/02/07 02:36:37;;;;;;;22.63;10.38;;;0.80;99.90;;;;;;5052406;28;20052;-53
2023/02/07 02:39:04;;;;;;;19.33;9.40;;;0.80;99.90;;;;;;5052526;28;20041;-50
2023/02/07 02:41:31;;;;;;;23.92;10.35;;;0.80;99.90;;;;;;5053596;28;20079;-52
2023/02/07 02:43:58;;;;;;;23.92;9.68;;;0.80;99.90;;;;;;5052926;28;20049;-48
2023/02/07 02:46:25;;;;;;;24.95;9.75;;;0.70;99.90;;;;;;5053894;28;20344;-51
2023/02/07 02:48:54;;;;;;;22.25;9.27;;;0.70;99.90;;;;;;5052784;28;20049;-49
2023/02/07 02:51:21;;;;;;;22.95;9.63;;;0.60;99.90;;;;;;5052640;28;20044;-52
2023/02/07 02:53:47;;;;;;;23.35;8.90;;;0.60;99.90;;;;;;5052004;28;20044;-49
2023/02/07 02:56:14;;;;;;;24.75;9.45;;;0.60;99.90;;;;;;5052170;28;20135;-51
2023/02/07 02:58:41;;;;;;;25.92;9.05;;;0.60;99.90;;;;;;5052633;28;20040;-50
2023/02/07 03:01:08;;;;;;;22.83;9.48;;;0.60;99.90;;;;;;5051828;28;20127;-54
2023/02/07 03:03:35;;;;;;;26.60;9.52;;;0.60;99.90;;;;;;5053095;28;20044;-51
2023/02/07 03:06:02;;;;;;;21.42;9.15;;;0.60;99.90;;;;;;5052093;28;20099;-52
2023/02/07 03:08:29;;;;;;;18.75;8.30;;;0.60;99.90;;;;;;5052226;28;20045;-53
2023/02/07 03:10:56;;;;;;;23.77;9.85;;;0.60;99.90;;;;;;5052103;28;20400;-51
2023/02/07 03:13:22;;;;;;;27.08;9.07;;;0.50;99.90;;;;;;5053289;28;20037;-52
2023/02/07 03:15:49;;;;;;;24.48;9.77;;;0.50;99.90;;;;;;5053289;28;20489;-53
2023/02/07 03:18:16;;;;;;;36.42;11.13;;;0.50;99.90;;;;;;5052119;28;20494;-49
2023/02/07 03:20:43;;;;;;;37.00;12.40;;;0.50;99.90;;;;;;5052075;28;20073;-50
2023/02/07 03:23:10;;;;;;;30.00;11.57;;;0.50;99.90;;;;;;5053795;28;20048;-53
2023/02/07 03:25:37;;;;;;;45.75;11.95;;;0.50;99.90;;;;;;5053350;28;20045;-54
2023/02/07 03:28:04;;;;;;;40.97;12.25;;;0.50;99.90;;;;;;5051954;28;20047;-49
2023/02/07 03:30:31;;;;;;;38.15;11.98;;;0.50;99.90;;;;;;5053167;28;20458;-52
2023/02/07 03:32:57;;;;;;;41.00;12.25;;;0.50;99.90;;;;;;5053575;28;20037;-49
2023/02/07 03:35:24;;;;;;;36.15;13.05;;;0.50;99.90;;;;;;5053136;28;20487;-51
2023/02/07 03:37:51;;;;;;;52.58;15.13;;;0.50;99.90;;;;;;5053496;28;20558;-51
2023/02/07 03:40:18;;;;;;;48.15;13.32;;;0.50;99.90;;;;;;5053184;28;20091;-51
2023/02/07 03:42:44;;;;;;;50.83;14.23;;;0.50;99.90;;;;;;5052742;28;20459;-47
2023/02/07 03:45:11;;;;;;;42.15;14.80;;;0.50;99.90;;;;;;5053106;28;20045;-51
2023/02/07 03:47:38;;;;;;;53.25;16.48;;;0.50;99.90;;;;;;5052813;28;20052;-51
2023/02/07 03:50:05;;;;;;;43.35;14.52;;;0.60;99.90;;;;;;5053212;28;20049;-51
2023/02/07 03:52:31;;;;;;;49.92;14.85;;;0.60;99.90;;;;;;5053362;28;20049;-49
2023/02/07 03:54:58;;;;;;;63.40;14.60;;;0.60;99.90;;;;;;5053263;28;20087;-50
2023/02/07 03:57:25;;;;;;;45.80;15.98;;;0.60;99.90;;;;;;5052580;28;20445;-48
2023/02/07 03:59:52;;;;;;;60.00;16.30;;;0.60;99.90;;;;;;5052800;28;20033;-47
2023/02/07 04:02:19;;;;;;;64.00;15.65;;;0.60;99.90;;;;;;5052968;28;20510;-54
2023/02/07 04:04:45;;;;;;;55.05;14.25;;;0.60;99.90;;;;;;5052576;28;20049;-53
2023/02/07 04:07:12;;;;;;;41.40;13.15;;;0.60;99.90;;;;;;5052411;28;20136;-53
2023/02/07 04:09:39;;;;;;;54.42;15.63;;;0.60;99.90;;;;;;5053051;28;20094;-50
2023/02/07 04:12:06;;;;;;;48.80;14.55;;;0.60;99.90;;;;;;5052923;28;20045;-53
2023/02/07 04:14:32;;;;;;;34.85;14.57;;;0.60;99.90;;;;;;5053077;28;20041;-52
2023/02/07 04:16:59;;;;;;;34.80;15.32;;;0.60;99.90;;;;;;5055837;28;20063;-51
2023/02/07 04:19:26;;;;;;;45.95;16.08;;;0.60;99.90;;;;;;5056629;28;20041;-52
2023/02/07 04:21:52;;;;;;;38.58;13.77;;;0.50;99.90;;;;;;5055967;28;20080;-51
2023/02/07 04:24:19;;;;;;;38.58;14.25;;;0.50;99.90;;;;;;5056289;28;20045;-50
2023/02/07 04:26:46;;;;;;;38.25;14.25;;;0.50;99.90;;;;;;5056260;28;20101;-51
2023/02/07 04:29:13;;;;;;;34.28;15.02;;;0.40;99.90;;;;;;5056168;28;20080;-52
2023/02/07 04:31:41;;;;;;;36.55;15.15;;;0.40;99.90;;;;;;5056123;28;20045;-49
2023/02/07 04:34:11;;;;;;;32.63;15.48;;;0.40;99.90;;;;;;5055817;28;20094;-52
2023/02/07 04:36:38;;;;;;;40.13;15.30;;;0.40;99.90;;;;;;5056403;28;20052;-51
2023/02/07 04:39:05;;;;;;;27.38;14.35;;;0.30;99.90;;;;;;5056140;28;20045;-49
2023/02/07 04:41:32;;;;;;;34.55;15.50;;;0.30;99.90;;;;;;5056214;28;20099;-53
2023/02/07 04:43:58;;;;;;;26.58;12.88;;;0.30;99.90;;;;;;5054983;28;20045;-51
2023/02/07 04:46:27;;;;;;;33.92;14.70;;;0.30;99.90;;;;;;5055849;28;20381;-51
2023/02/07 04:48:54;;;;;;;25.75;13.98;;;0.30;99.90;;;;;;5056051;28;20118;-51
2023/02/07 04:51:20;;;;;;;26.13;13.75;;;0.20;99.90;;;;;;5055987;28;20487;-50
2023/02/07 04:53:47;;;;;;;31.73;14.02;;;0.20;99.90;;;;;;5055796;28;20049;-51
2023/02/07 04:56:14;;;;;;;27.67;13.20;;;0.20;99.90;;;;;;5055812;28;20037;-55
2023/02/07 04:58:41;;;;;;;30.23;14.00;;;0.20;99.90;;;;;;5055720;28;20134;-50
2023/02/07 05:01:08;;;;;;;29.30;14.32;;;0.20;99.90;;;;;;5054589;28;20041;-52
2023/02/07 05:03:35;;;;;;;27.70;13.02;;;0.20;99.90;;;;;;5055368;28;20090;-50
2023/02/07 05:06:02;;;;;;;28.58;13.25;;;0.10;99.90;;;;;;5055265;28;20127;-52
2023/02/07 05:08:28;;;;;;;28.15;13.70;;;0.10;99.90;;;;;;5055894;28;20045;-49
2023/02/07 05:10:55;;;;;;;26.73;13.23;;;0.10;99.90;;;;;;5055062;28;20040;-48
2023/02/07 05:13:22;;;;;;;25.02;12.80;;;0.10;99.90;;;;;;5055259;28;20047;-51
2023/02/07 05:15:49;;;;;;;32.08;13.13;;;0.10;99.90;;;;;;5055111;28;20041;-52
2023/02/07 05:18:16;;;;;;;31.05;13.88;;;0.10;99.90;;;;;;5055451;28;20047;-50
2023/02/07 05:20:42;;;;;;;27.10;13.50;;;0.00;99.90;;;;;;5055269;28;20120;-52
2023/02/07 05:23:09;;;;;;;31.83;14.00;;;0.00;99.90;;;;;;5055344;28;20439;-51
2023/02/07 05:25:36;;;;;;;24.83;12.95;;;0.00;99.90;;;;;;5055498;28;20049;-50
2023/02/07 05:28:03;;;;;;;30.33;12.30;;;0.00;99.90;;;;;;5054074;28;20045;-53
2023/02/07 05:30:30;;;;;;;27.80;13.73;;;0.00;99.90;;;;;;5055122;28;20128;-51
2023/02/07 05:33:03;;;;;;;28.20;14.02;;;0.00;99.90;;;;;;5055045;28;20124;-52
2023/02/07 05:35:29;;;;;;;30.15;13.00;;;0.00;99.90;;;;;;5055123;28;20040;-51
2023/02/07 05:37:56;;;;;;;25.90;12.85;;;0.00;99.90;;;;;;5054888;28;20408;-54
2023/02/07 05:40:23;;;;;;;26.98;13.15;;;0.00;99.90;;;;;;5055070;28;20061;-49
2023/02/07 05:42:51;;;;;;;29.30;13.38;;;-0.10;99.90;;;;;;5054862;28;20120;-52
2023/02/07 05:45:18;;;;;;;23.92;12.55;;;0.00;99.90;;;;;;5055022;28;20442;-51
2023/02/07 05:47:45;;;;;;;31.10;13.90;;;-0.10;99.90;;;;;;5054950;28;20140;-49
2023/02/07 05:50:11;;;;;;;26.02;12.68;;;-0.10;99.90;;;;;;5054829;28;20045;-49
2023/02/07 05:52:38;;;;;;;25.77;13.50;;;-0.10;99.90;;;;;;5054296;28;20056;-54
2023/02/07 05:55:05;;;;;;;23.55;12.40;;;-0.10;99.90;;;;;;5054447;28;20440;-48
2023/02/07 05:57:31;;;;;;;28.40;12.68;;;-0.10;99.90;;;;;;5054721;28;20469;-53
2023/02/07 05:59:58;;;;;;;27.52;12.93;;;-0.10;99.90;;;;;;5054804;28;20124;-53
2023/02/07 06:02:25;;;;;;;27.08;11.85;;;-0.10;99.90;;;;;;5054656;28;20072;-51
2023/02/07 06:04:52;;;;;;;28.13;12.88;;;-0.10;99.90;;;;;;5053054;28;20480;-52
2023/02/07 06:07:18;;;;;;;26.13;12.82;;;-0.10;99.90;;;;;;5054337;28;20469;-50
2023/02/07 06:09:45;;;;;;;25.35;12.27;;;-0.20;99.90;;;;;;5054524;28;20048;-50
2023/02/07 06:12:12;;;;;;;23.35;12.32;;;-0.20;99.90;;;;;;5054662;28;20090;-53
2023/02/07 06:14:39;;;;;;;24.00;12.25;;;-0.20;99.90;;;;;;5053764;28;20045;-52
2023/02/07 06:17:05;;;;;;;28.27;13.10;;;-0.20;99.90;;;;;;5054392;28;20480;-55
2023/02/07 06:19:32;;;;;;;22.23;12.23;;;-0.20;99.90;;;;;;5054281;28;20045;-52
2023/02/07 06:21:59;;;;;;;25.60;12.32;;;-0.20;99.90;;;;;;5053718;28;20106;-49
2023/02/07 06:24:26;;;;;;;23.88;12.40;;;-0.20;99.90;;;;;;5054016;28;20063;-52
2023/02/07 06:26:53;;;;;;;26.15;11.85;;;-0.20;99.90;;;;;;5053888;28;20048;-53
2023/02/07 06:29:20;;;;;;;26.30;11.05;;;-0.20;99.90;;;;;;5053945;28;20049;-50
2023/02/07 06:31:46;;;;;;;29.50;12.25;;;-0.20;99.90;;;;;;5053561;28;20099;-51
2023/02/07 06:34:13;;;;;;;27.25;12.45;;;-0.30;99.90;;;;;;5053732;28;20045;-49
2023/02/07 06:36:40;;;;;;;25.63;11.10;;;-0.30;99.90;;;;;;5053740;28;20041;-51
2023/02/07 06:39:07;;;;;;;23.77;11.65;;;-0.40;99.90;;;;;;5053541;28;20090;-51
2023/02/07 06:41:34;;;;;;;24.17;11.18;;;-0.40;99.90;;;;;;5053605;28;20439;-53
2023/02/07 06:44:00;;;;;;;21.60;11.68;;;-0.40;99.90;;;;;;5053579;28;20037;-51
2023/02/07 06:46:27;;;;;;;24.08;10.25;;;-0.40;99.90;;;;;;5053870;28;20084;-52
2023/02/07 06:48:54;;;;;;;23.00;10.13;;;-0.40;99.90;;;;;;5053378;28;20041;-50
2023/02/07 06:51:21;;;;;;;20.27;11.10;;;-0.40;99.90;;;;;;5053560;28;20068;-49
2023/02/07 06:53:47;;;;;;;22.85;11.10;;;-0.40;99.90;;;;;;5053746;28;20048;-51
2023/02/07 06:56:14;;;;;;;20.95;11.27;;;-0.40;99.90;;;;;;5053605;28;20045;-52
2023/02/07 06:58:44;;;;;;;20.00;10.95;;;-0.40;99.90;;;;;;5053434;28;20090;-51
2023/02/07 07:01:10;;;;;;;25.45;11.35;;;-0.40;99.90;;;;;;5053483;28;20554;-55
2023/02/07 07:03:37;;;;;;;28.17;11.88;;;-0.40;99.90;;;;;;5053883;28;20435;-54
2023/02/07 07:06:04;;;;;;;31.27;12.45;;;-0.50;99.90;;;;;;5053042;28;20040;-49
2023/02/07 07:08:31;;;;;;;26.45;11.32;;;-0.50;99.90;;;;;;5053590;28;20080;-49
2023/02/07 07:10:57;;;;;;;21.85;11.38;;;-0.50;99.90;;;;;;5053011;28;20107;-52
2023/02/07 07:13:24;;;;;;;18.45;11.07;;;-0.50;99.90;;;;;;5053320;28;21370;-50
2023/02/07 07:15:51;;;;;;;28.73;11.35;;;-0.50;99.90;;;;;;5053301;28;20522;-52
2023/02/07 07:18:18;;;;;;;22.05;11.27;;;-0.50;99.90;;;;;;5053144;28;20045;-52
2023/02/07 07:20:44;;;;;;;23.30;11.98;;;-0.50;99.90;;;;;;5053281;28;20037;-52
2023/02/07 07:23:11;;;;;;;24.65;12.63;;;-0.50;99.90;;;;;;5053364;28;20118;-51
2023/02/07 07:25:38;;;;;;;20.27;11.40;;;-0.50;99.90;;;;;;5052946;28;20045;-51
2023/02/07 07:28:05;;;;;;;24.48;10.65;;;-0.50;99.90;;;;;;5053212;28;20420;-53
2023/02/07 07:30:32;;;;;;;25.98;12.98;;;-0.50;99.90;;;;;;5052985;28;20480;-52
2023/02/07 07:32:59;;;;;;;25.08;11.75;;;-0.50;99.90;;;;;;5052811;28;20576;-52
2023/02/07 07:35:25;;;;;;;23.67;11.68;;;-0.50;99.90;;;;;;5053103;28;20091;-52
2023/02/07 07:37:52;;;;;;;22.77;12.52;;;-0.50;99.90;;;;;;5053240;28;20048;-51
2023/02/07 07:40:19;;;;;;;21.70;11.80;;;-0.50;99.90;;;;;;5053417;28;20091;-50
2023/02/07 07:42:46;;;;;;;33.50;14.10;;;-0.50;99.90;;;;;;5052981;28;20033;-52
2023/02/07 07:45:22;;;;;;;28.52;12.75;;;-0.50;99.90;;;;;;5051857;28;20136;-53
2023/02/07 07:47:49;;;;;;;26.05;12.73;;;-0.50;99.90;;;;;;5053329;28;20052;-50
2023/02/07 07:50:15;;;;;;;32.03;14.18;;;-0.60;99.90;;;;;;5053720;28;20049;-51
2023/02/07 07:52:42;;;;;;;23.50;12.50;;;-0.60;99.90;;;;;;5056776;28;20037;-48
2023/02/07 07:55:09;;;;;;;23.60;13.10;;;-0.60;99.90;;;;;;5057018;28;20045;-49
2023/02/07 07:57:36;;;;;;;26.40;13.73;;;-0.60;99.90;;;;;;5056612;28;20041;-54
2023/02/07 08:00:03;;;;;;;25.55;12.43;;;-0.50;99.90;;;;;;5056758;28;20107;-50
2023/02/07 08:02:38;;;;;;;26.25;12.07;;;-0.50;99.90;;;;;;5056784;28;20045;-53
2023/02/07 08:05:05;;;;;;;27.88;13.52;;;-0.50;99.90;;;;;;5056659;28;20041;-49
2023/02/07 08:07:31;;;;;;;23.73;12.98;;;-0.50;99.90;;;;;;5056588;28;20468;-52
2023/02/07 08:09:58;;;;;;;27.95;14.00;;;-0.50;99.90;;;;;;5056266;28;20076;-55
2023/02/07 08:12:25;;;;;;;34.47;14.10;;;-0.50;99.90;;;;;;5055154;28;20051;-50
2023/02/07 08:14:52;;;;;;;27.88;14.40;;;-0.40;99.90;;;;;;5056045;28;20083;-52
2023/02/07 08:17:20;;;;;;;25.83;12.93;;;-0.50;99.90;;;;;;5056537;28;20053;-52
2023/02/07 08:19:47;;;;;;;29.42;14.38;;;-0.40;99.90;;;;;;5056612;28;20041;-48
2023/02/07 08:22:15;;;;;;;28.75;12.55;;;-0.40;99.90;;;;;;5055752;28;20053;-49
2023/02/07 08:24:41;;;;;;;26.27;11.05;;;-0.30;99.90;;;;;;5054798;28;20045;-53
2023/02/07 08:27:08;;;;;;;26.13;9.38;;;-0.30;99.90;;;;;;5054644;28;20048;-52
2023/02/07 08:29:35;;;;;;;28.80;9.48;;;-0.20;99.90;;;;;;5056417;28;20041;-48
2023/02/07 08:32:04;;;;;;;26.98;8.57;;;-0.30;99.90;;;;;;5056237;28;20045;-50
2023/02/07 08:34:36;;;;;;;18.63;8.68;;;-0.20;99.90;;;;;;5056009;28;20041;-48
2023/02/07 08:37:03;;;;;;;27.17;9.20;;;-0.20;99.90;;;;;;5056172;28;20040;-51
2023/02/07 08:39:30;;;;;;;26.73;9.80;;;-0.20;99.90;;;;;;5054694;28;20579;-51
2023/02/07 08:41:56;;;;;;;83.05;47.10;;;-0.10;99.90;;;;;;5055786;28;20086;-54
2023/02/07 08:44:23;;;;;;;29.67;15.30;;;-0.10;99.90;;;;;;5055436;28;20124;-54
2023/02/07 08:46:50;;;;;;;36.95;14.75;;;-0.10;99.90;;;;;;5055408;28;20094;-49
2023/02/07 08:49:17;;;;;;;36.85;15.77;;;-0.10;99.90;;;;;;5056280;28;20114;-49
2023/02/07 08:51:43;;;;;;;32.28;14.07;;;-0.20;99.90;;;;;;5055720;28;20476;-50
2023/02/07 08:54:10;;;;;;;34.40;15.52;;;-0.20;99.90;;;;;;5056190;28;20059;-54
2023/02/07 08:56:38;;;;;;;36.55;14.10;;;-0.20;99.90;;;;;;5056131;28;20044;-55
2023/02/07 08:59:07;;;;;;;32.65;14.98;;;-0.20;99.90;;;;;;5054738;28;20488;-53
2023/02/07 09:01:33;;;;;;;31.38;13.20;;;-0.20;99.90;;;;;;5055195;28;20094;-50
2023/02/07 09:04:10;;;;;;;41.38;16.52;;;-0.30;99.90;;;;;;5055752;28;20385;-49
2023/02/07 09:06:37;;;;;;;38.78;16.00;;;-0.30;99.90;;;;;;5055638;28;20102;-51
2023/02/07 09:09:04;;;;;;;39.75;16.85;;;-0.30;99.90;;;;;;5055829;28;20072;-51
2023/02/07 09:11:34;;;;;;;43.00;17.67;;;-0.20;99.90;;;;;;5055813;28;20388;-51
2023/02/07 09:14:01;;;;;;;36.22;16.70;;;-0.20;99.90;;;;;;5055994;28;20069;-51
2023/02/07 09:16:28;;;;;;;38.22;16.17;;;-0.20;99.90;;;;;;5055156;28;20060;-49
2023/02/07 09:18:55;;;;;;;41.63;17.67;;;-0.20;99.90;;;;;;5055609;28;20045;-48
2023/02/07 09:21:22;;;;;;;44.03;17.17;;;-0.20;99.90;;;;;;5055373;28;20033;-53
2023/02/07 09:23:51;;;;;;;39.85;17.25;;;-0.10;99.90;;;;;;5055754;28;20033;-48
2023/02/07 09:26:19;;;;;;;44.60;19.63;;;-0.10;99.90;;;;;;5053819;28;20091;-52
2023/02/07 09:28:46;;;;;;;38.35;18.88;;;0.00;99.90;;;;;;5055098;28;20037;-49
2023/02/07 09:31:12;;;;;;;33.55;15.77;;;0.10;99.90;;;;;;5055469;28;20055;-50
2023/02/07 09:33:39;;;;;;;48.03;18.63;;;0.20;99.90;;;;;;5054151;28;20048;-48
2023/02/07 09:36:09;;;;;;;45.40;21.33;;;0.30;99.90;;;;;;5037526;28;20048;-50
2023/02/07 09:38:36;;;;;;;41.67;19.10;;;0.40;99.90;;;;;;5055382;28;20168;-52
2023/02/07 09:41:03;;;;;;;44.85;18.50;;;0.50;99.90;;;;;;5054890;28;20033;-49
2023/02/07 09:43:30;;;;;;;52.92;19.27;;;0.60;99.90;;;;;;5055101;28;20037;-51
2023/02/07 09:46:03;;;;;;;45.05;17.98;;;0.70;99.90;;;;;;5054803;28;20115;-50
2023/02/07 09:48:30;;;;;;;47.50;15.65;;;0.80;99.90;;;;;;5054795;28;20071;-54
2023/02/07 09:50:57;;;;;;;89.05;16.85;;;0.90;99.90;;;;;;5054523;28;20099;-51
2023/02/07 09:53:24;;;;;;;50.58;16.45;;;1.00;99.90;;;;;;5054797;28;20416;-51
2023/02/07 09:55:51;;;;;;;54.13;20.55;;;1.10;99.90;;;;;;5054360;28;20037;-49
2023/02/07 09:58:18;;;;;;;63.88;22.85;;;1.10;99.90;;;;;;5054595;28;20045;-52
2023/02/07 10:00:45;;;;;;;62.25;23.55;;;1.20;99.90;;;;;;5054719;28;20119;-50
2023/02/07 10:03:12;;;;;;;62.38;23.60;;;1.20;99.90;;;;;;5053307;28;20480;-55
2023/02/07 10:05:39;;;;;;;44.47;22.23;;;1.30;99.90;;;;;;5054479;28;20459;-53
2023/02/07 10:08:06;;;;;;;49.10;20.23;;;1.30;99.90;;;;;;5054354;28;20033;-50
2023/02/07 10:10:33;;;;;;;62.90;21.45;;;1.40;99.90;;;;;;5054330;28;20048;-51
2023/02/07 10:12:59;;;;;;;43.72;20.92;;;1.40;99.90;;;;;;5053682;28;20044;-53
2023/02/07 10:15:26;;;;;;;39.92;21.20;;;1.40;99.90;;;;;;5054334;28;20041;-54
2023/02/07 10:17:53;;;;;;;35.45;20.55;;;1.50;99.90;;;;;;5054604;28;20490;-52
2023/02/07 10:20:21;;;;;;;33.95;20.38;;;1.50;99.90;;;;;;5054583;28;20053;-51
2023/02/07 10:22:48;;;;;;;53.88;21.85;;;1.60;99.90;;;;;;5054445;28;20137;-51
2023/02/07 10:25:15;;;;;;;81.75;22.83;;;1.60;99.90;;;;;;5053321;28;20126;-50
2023/02/07 10:27:41;;;;;;;50.50;22.60;;;1.60;99.90;;;;;;5054264;28;20123;-51
2023/02/07 10:30:08;;;;;;;52.55;23.05;;;1.70;99.90;;;;;;5053382;28;20389;-55
2023/02/07 10:32:35;;;;;;;38.38;22.13;;;1.70;99.90;;;;;;5054339;28;20076;-52
2023/02/07 10:35:02;;;;;;;55.15;22.65;;;1.70;99.90;;;;;;5054010;28;20373;-51
2023/02/07 10:37:29;;;;;;;50.67;22.95;;;1.80;99.90;;;;;;5054161;28;20037;-49
2023/02/07 10:39:57;;;;;;;42.50;24.67;;;1.70;99.90;;;;;;5054406;28;20040;-50
2023/02/07 10:42:24;;;;;;;44.10;23.75;;;1.80;99.90;;;;;;5053073;28;20060;-50
2023/02/07 10:44:54;;;;;;;47.72;26.02;;;1.90;99.90;;;;;;5054513;28;20542;-52
2023/02/07 10:47:22;;;;;;;45.17;24.35;;;2.00;99.90;;;;;;5052780;28;20110;-50
2023/02/07 10:49:49;;;;;;;48.72;25.40;;;2.00;99.90;;;;;;5054053;28;20476;-54
2023/02/07 10:52:16;;;;;;;46.53;24.90;;;2.00;99.90;;;;;;5052821;28;20436;-52
2023/02/07 10:54:43;;;;;;;49.05;25.23;;;2.00;99.90;;;;;;5052610;28;20041;-50
2023/02/07 10:57:10;;;;;;;50.50;25.10;;;2.10;99.90;;;;;;5052322;28;20041;-54
2023/02/07 10:59:39;;;;;;;43.75;24.27;;;2.10;99.90;;;;;;5053661;28;20047;-51
2023/02/07 11:02:06;;;;;;;47.53;24.65;;;2.10;99.90;;;;;;5054085;28;20041;-55
2023/02/07 11:04:35;;;;;;;45.15;25.65;;;2.20;99.90;;;;;;5052666;28;20069;-50
2023/02/07 11:07:02;;;;;;;50.83;24.30;;;2.20;99.90;;;;;;5053156;28;20084;-55
2023/02/07 11:09:30;;;;;;;54.83;26.15;;;2.30;99.90;;;;;;5053163;28;20048;-50
2023/02/07 11:11:57;;;;;;;55.60;27.52;;;2.40;99.90;;;;;;5053538;28;20064;-53
2023/02/07 11:14:27;;;;;;;54.03;26.92;;;2.50;99.90;;;;;;5053145;28;20045;-52
2023/02/07 11:16:54;;;;;;;47.42;27.77;;;2.50;99.90;;;;;;5053144;28;20041;-49
2023/02/07 11:19:20;;;;;;;63.53;28.40;;;2.60;99.90;;;;;;5053680;28;20108;-47
2023/02/07 11:21:47;;;;;;;56.65;27.27;;;2.70;99.90;;;;;;5053158;28;20107;-52
2023/02/07 11:24:14;;;;;;;47.40;24.08;;;2.80;99.90;;;;;;5054126;28;20511;-52
2023/02/07 11:26:41;;;;;;;52.03;24.23;;;2.90;99.90;;;;;;5057203;28;20400;-51
2023/02/07 11:29:07;;;;;;;44.55;20.88;;;3.00;99.90;;;;;;5057376;28;20049;-50
2023/02/07 11:31:34;;;;;;;43.33;20.13;;;3.10;99.90;;;;;;5057399;28;20071;-54
2023/02/07 11:34:01;;;;;;;38.03;20.48;;;3.20;99.90;;;;;;5057236;28;20064;-53
2023/02/07 11:36:29;;;;;;;43.53;21.17;;;3.20;99.90;;;;;;5057122;28;20045;-50
2023/02/07 11:38:55;;;;;;;36.75;19.90;;;3.30;99.90;;;;;;5057378;28;20037;-51
2023/02/07 11:41:24;;;;;;;38.85;20.63;;;3.40;99.90;;;;;;5056868;28;20033;-54
2023/02/07 11:43:51;;;;;;;42.10;21.20;;;3.50;99.90;;;;;;5057177;28;20041;-50
2023/02/07 11:46:17;;;;;;;44.33;19.45;;;3.50;99.90;;;;;;5056578;28;20495;-52
2023/02/07 11:48:44;;;;;;;42.40;21.67;;;3.60;99.90;;;;;;5056707;28;20072;-52
2023/02/07 11:51:11;;;;;;;50.40;22.75;;;3.70;99.90;;;;;;5057115;28;20045;-52
2023/02/07 11:53:38;;;;;;;43.92;21.40;;;3.80;99.90;;;;;;5056765;28;20454;-49
2023/02/07 11:56:05;;;;;;;42.13;20.42;;;3.90;99.90;;;;;;5056916;28;20499;-52
2023/02/07 11:58:32;;;;;;;34.75;16.83;;;4.00;99.90;;;;;;5056563;28;20044;-51
2023/02/07 12:00:58;;;;;;;36.17;16.98;;;4.10;99.90;;;;;;5056326;28;20057;-50
2023/02/07 12:03:25;;;;;;;38.90;15.80;;;4.20;99.90;;;;;;5056573;28;20071;-54
2023/02/07 12:05:52;;;;;;;25.92;13.20;;;4.20;99.90;;;;;;5056707;28;20049;-52
2023/02/07 12:08:19;;;;;;;29.90;11.88;;;4.30;99.90;;;;;;5056708;28;20048;-54
2023/02/07 12:10:46;;;;;;;28.23;13.10;;;4.30;99.90;;;;;;5056404;28;20061;-53
2023/02/07 12:13:13;;;;;;;26.85;11.90;;;4.40;99.90;;;;;;5056455;28;20053;-50
2023/02/07 12:15:39;;;;;;;26.83;11.35;;;4.40;99.90;;;;;;5056218;28;20041;-51
2023/02/07 12:18:06;;;;;;;23.25;10.20;;;4.50;99.90;;;;;;5056230;28;20073;-53
2023/02/07 12:20:33;;;;;;;23.60;10.63;;;4.50;99.90;;;;;;5056668;28;20037;-50
2023/02/07 12:23:00;;;;;;;30.63;11.40;;;4.50;99.90;;;;;;5056316;28;20052;-52
2023/02/07 12:25:47;;;;;;;21.10;11.00;;;4.60;99.90;;;;;;5056118;28;20069;-51
2023/02/07 12:28:14;;;;;;;23.67;9.00;;;4.60;99.90;;;;;;5056290;28;20499;-52
2023/02/07 12:30:41;;;;;;;22.83;8.75;;;4.70;99.90;;;;;;5056243;28;20083;-52
2023/02/07 12:33:07;;;;;;;19.05;6.55;;;4.70;99.90;;;;;;5056258;28;20080;-51
2023/02/07 12:35:34;;;;;;;19.35;6.25;;;4.80;99.90;;;;;;5056004;28;20045;-47